Hamilton, CO (81638)

1:36 AM MST on January 30, 2015 (GMT -0700)
HAYDEN, COLORADO (DOWN TOWN) | Change Station
CLOSE
Current Station
Personal Weather Station
Location: Hayden, CO
Elevation: 6352 ft
Nearby Weather Stations

Elev 6352 ft 40.50 °N, 107.25 °W | Updated 5 seconds ago

Overcast
Overcast
30.1 °F
Feels Like 26 °F
N
3.7
Wind Variable Wind from ENE
Gusts 3.7 mph

Today
High -- | Low -- °F
--% Chance of Precip.
Yesterday
High -- | Low -- °F
Precip. -- in
7:21 AM 5:26 PM
Waxing Gibbous, 81% visible
Pressure 30.28 in
Visibility 10.0 miles
Clouds Mostly Cloudy 4100 ft
Overcast 5000 ft
Windchill 26 °F
Dew Point 28 °F
Humidity 89%
Rainfall 0.00 in
Snow Depth Not available.
UV 0 out of 12
Pollen .10 out of 12
Air Quality Not available.
Flu Activity Not available.
METAR KHDN 300815Z AUTO 08006KT 10SM BKN041 OVC050 00/M04 A3028 RMK AO1

More Conditions Fewer Conditions

Pressure 30.28 in
Visibility 10.0 miles
Clouds Mostly Cloudy 4100 ft
Overcast 5000 ft
Windchill 26 °F
Dew Point 28 °F
Humidity 89%
Rainfall 0.00 in
Snow Depth Not available.
UV 0 out of 12
Pollen .10 out of 12
Air Quality Not available.
Flu Activity Not available.
METAR KHDN 300815Z AUTO 08006KT 10SM BKN041 OVC050 00/M04 A3028 RMK AO1

More Conditions Fewer Conditions

10-Day Weather Forecast

Almanac

Astronomy

Jan. 30, 2015 Rise Set
Actual Time
Civil Twilight
Nautical Twilight
Astronomical Twilight
Moon
Length of Visible Light
Length of Day
Tomorrow will be .
, % of the Moon is Illuminated

Today's Extremes

State Highs State Lows

Community

WunderPhotos

Upload Photos

1,791,730 photos uploaded!

WunderBlogs® & News

Nearby

Air Quality

  Air Quality AQ Index Pollutant
Not available.

Snow Depth

Station Depth Elevation

Earthquake Activity

City Distance Mag. Time & Date
Minimum magnitude displayed is 2.5.

Coastal Water Temperatures

Place Temperature

Nearby Weather Stations